createdAt,value
2022-09-18T00:00:37.818Z,44.13
2022-09-18T00:01:37.871Z,51.42
2022-09-18T00:02:37.858Z,41.44
2022-09-18T00:03:37.795Z,62.50
2022-09-18T00:04:37.783Z,42.33
2022-09-18T00:05:37.766Z,40.33
2022-09-18T00:06:37.753Z,40.59
2022-09-18T00:07:37.745Z,45.51
2022-09-18T00:08:37.744Z,47.67
2022-09-18T00:09:37.737Z,62.66
2022-09-18T00:10:38.711Z,44.81
2022-09-18T00:11:37.717Z,43.79
2022-09-18T00:12:37.696Z,40.62
2022-09-18T00:13:37.697Z,40.24
2022-09-18T00:14:37.683Z,45.00
2022-09-18T00:15:37.676Z,44.95
2022-09-18T00:16:37.727Z,43.72
2022-09-18T00:17:37.680Z,41.01
2022-09-18T00:18:37.725Z,45.78
2022-09-18T00:19:37.631Z,47.18
2022-09-18T00:20:37.618Z,45.01
2022-09-18T00:21:37.645Z,44.65
2022-09-18T00:22:37.608Z,42.69
2022-09-18T00:23:37.589Z,44.12
2022-09-18T00:24:37.577Z,42.90
2022-09-18T00:25:37.568Z,42.21
2022-09-18T00:26:37.572Z,62.29
2022-09-18T00:27:37.550Z,45.70
2022-09-18T00:28:37.550Z,40.77
2022-09-18T00:29:37.514Z,45.51
2022-09-18T00:30:37.514Z,48.88
2022-09-18T00:31:37.558Z,47.00
2022-09-18T00:32:37.515Z,47.92
2022-09-18T00:33:37.479Z,43.35
2022-09-18T00:34:37.560Z,41.35
2022-09-18T00:35:37.471Z,46.05
2022-09-18T00:36:37.454Z,51.60
2022-09-18T00:37:37.609Z,44.46
2022-09-18T00:38:37.435Z,42.44
2022-09-18T00:39:37.425Z,41.46
2022-09-18T00:40:37.478Z,42.96
2022-09-18T00:41:37.411Z,48.54
2022-09-18T00:42:37.414Z,43.98
2022-09-18T00:43:37.390Z,40.72
2022-09-18T00:44:37.396Z,40.59
2022-09-18T00:45:37.355Z,53.45
2022-09-18T00:46:37.398Z,45.94
2022-09-18T00:47:37.347Z,42.45
2022-09-18T00:48:37.332Z,40.82
2022-09-18T00:49:37.334Z,45.23
2022-09-18T00:50:37.400Z,48.41
2022-09-18T00:51:37.308Z,42.21
2022-09-18T00:52:37.300Z,44.86
2022-09-18T00:53:37.291Z,43.84
2022-09-18T00:54:37.310Z,42.40
2022-09-18T00:55:37.256Z,45.13
2022-09-18T00:56:37.248Z,40.96
2022-09-18T00:57:37.239Z,41.57
2022-09-18T00:58:37.231Z,40.40
2022-09-18T00:59:37.242Z,51.68
2022-09-18T01:00:37.275Z,47.28
2022-09-18T01:01:37.252Z,44.61
2022-09-18T01:02:37.189Z,43.88
2022-09-18T01:03:37.182Z,40.48
2022-09-18T01:04:37.175Z,48.61
2022-09-18T01:05:37.169Z,40.61
2022-09-18T01:06:37.242Z,39.83
2022-09-18T01:07:37.147Z,41.93
2022-09-18T01:08:40.631Z,41.70
2022-09-18T01:09:38.138Z,48.29
2022-09-18T01:10:37.114Z,46.28
2022-09-18T01:11:37.103Z,44.76
2022-09-18T01:12:37.115Z,44.67
2022-09-18T01:13:37.078Z,48.92
2022-09-18T01:14:37.084Z,43.66
2022-09-18T01:15:37.065Z,43.42
2022-09-18T01:16:37.120Z,48.54
2022-09-18T01:17:37.058Z,58.20
2022-09-18T01:18:37.027Z,56.39
2022-09-18T01:19:37.030Z,46.44
2022-09-18T01:20:37.017Z,41.99
2022-09-18T01:21:37.009Z,47.49
2022-09-18T01:22:37.101Z,44.90
2022-09-18T01:23:36.986Z,43.86
2022-09-18T01:24:36.983Z,48.66
2022-09-18T01:25:36.966Z,46.78
2022-09-18T01:26:36.971Z,48.28
2022-09-18T01:27:36.947Z,43.15
2022-09-18T01:28:36.953Z,43.17
2022-09-18T01:29:36.949Z,47.27
2022-09-18T01:30:36.915Z,48.00
2022-09-18T01:31:37.022Z,47.10
2022-09-18T01:32:36.899Z,46.10
2022-09-18T01:33:36.896Z,53.62
2022-09-18T01:34:36.909Z,47.59
2022-09-18T01:35:41.557Z,45.59
2022-09-18T01:36:38.868Z,44.44
2022-09-18T01:37:36.849Z,47.57
2022-09-18T01:38:36.841Z,44.24
2022-09-18T01:39:36.834Z,46.40
2022-09-18T01:40:36.891Z,40.68
2022-09-18T01:41:36.807Z,40.95
2022-09-18T01:42:36.787Z,43.57
2022-09-18T01:43:36.791Z,40.76
2022-09-18T01:44:36.832Z,46.36
2022-09-18T01:45:36.776Z,42.52
2022-09-18T01:47:08.675Z,44.00
2022-09-18T01:47:36.744Z,48.17
2022-09-18T01:48:36.746Z,58.84
2022-09-18T01:49:36.740Z,49.35
2022-09-18T01:50:36.721Z,40.97
2022-09-18T01:51:36.735Z,44.72
2022-09-18T01:52:37.698Z,46.13
2022-09-18T01:53:36.691Z,41.16
2022-09-18T01:54:36.774Z,47.78
2022-09-18T01:55:37.670Z,55.92
2022-09-18T01:56:36.667Z,48.52
2022-09-18T01:57:36.634Z,40.93
2022-09-18T01:58:36.642Z,40.14
2022-09-18T01:59:36.640Z,40.62
2022-09-18T02:00:36.611Z,45.38
2022-09-18T02:01:36.684Z,60.82
2022-09-18T02:02:36.759Z,42.32
2022-09-18T02:03:36.609Z,40.43
2022-09-18T02:04:36.579Z,42.39
2022-09-18T02:05:36.575Z,41.78
2022-09-18T02:06:36.558Z,44.09
2022-09-18T02:07:36.557Z,40.56
2022-09-18T02:08:36.580Z,40.91
2022-09-18T02:09:36.533Z,44.53
2022-09-18T02:10:36.595Z,43.64
2022-09-18T02:11:36.505Z,43.52
2022-09-18T02:12:36.518Z,47.77
2022-09-18T02:13:36.520Z,50.63
2022-09-18T02:14:36.487Z,45.56
2022-09-18T02:15:36.458Z,45.38
2022-09-18T02:16:36.499Z,41.19
2022-09-18T02:17:36.458Z,43.97
2022-09-18T02:18:36.456Z,46.14
2022-09-18T02:19:36.429Z,44.56
2022-09-18T02:20:36.445Z,40.99
2022-09-18T02:21:36.436Z,40.65
2022-09-18T02:22:36.412Z,40.53
2022-09-18T02:23:36.401Z,45.31
2022-09-18T02:24:36.389Z,43.44
2022-09-18T02:25:36.374Z,47.22
2022-09-18T02:26:36.431Z,46.31
2022-09-18T02:27:36.349Z,42.08
2022-09-18T02:28:36.358Z,45.55
2022-09-18T02:29:36.385Z,48.38
2022-09-18T02:30:36.312Z,51.44
2022-09-18T02:31:36.363Z,40.65
2022-09-18T02:32:36.316Z,47.85
2022-09-18T02:33:36.355Z,46.78
2022-09-18T02:34:36.272Z,43.95
2022-09-18T02:35:36.260Z,40.09
2022-09-18T02:36:36.262Z,45.87
2022-09-18T02:37:36.264Z,44.87
2022-09-18T02:38:36.250Z,43.72
2022-09-18T02:39:36.237Z,41.79
2022-09-18T02:40:36.262Z,54.83
2022-09-18T02:41:36.238Z,41.61
2022-09-18T02:42:36.304Z,43.85
2022-09-18T02:43:36.221Z,40.88
2022-09-18T02:44:36.197Z,46.97
2022-09-18T02:45:36.170Z,47.50
2022-09-18T02:46:36.206Z,46.46
2022-09-18T02:47:36.156Z,50.22
2022-09-18T02:48:36.205Z,47.71
2022-09-18T02:49:36.133Z,47.57
2022-09-18T02:50:36.138Z,42.47
2022-09-18T02:51:36.115Z,42.74
2022-09-18T02:52:36.110Z,47.01
2022-09-18T02:53:36.115Z,58.14
2022-09-18T02:54:36.085Z,50.94
2022-09-18T02:55:36.089Z,44.40
2022-09-18T02:56:36.061Z,40.99
2022-09-18T02:57:36.098Z,43.59
2022-09-18T02:58:36.124Z,48.27
2022-09-18T02:59:36.043Z,42.56
2022-09-18T03:00:36.021Z,61.21
2022-09-18T03:01:36.110Z,45.33
2022-09-18T03:02:36.092Z,40.70
2022-09-18T03:03:35.982Z,40.80
2022-09-18T03:04:35.971Z,45.99
2022-09-18T03:05:35.972Z,46.41
2022-09-18T03:06:35.971Z,46.65
2022-09-18T03:07:35.983Z,40.42
2022-09-18T03:08:35.930Z,40.40
2022-09-18T03:09:35.905Z,42.19
2022-09-18T03:10:35.918Z,44.06
2022-09-18T03:11:35.894Z,40.40
2022-09-18T03:12:35.917Z,43.90
2022-09-18T03:13:35.884Z,42.99
2022-09-18T03:14:35.961Z,44.60
2022-09-18T03:15:35.873Z,43.16
2022-09-18T03:16:35.929Z,45.69
2022-09-18T03:17:35.883Z,45.39
2022-09-18T03:18:35.840Z,46.34
2022-09-18T03:19:35.840Z,41.35
2022-09-18T03:20:35.849Z,47.69
2022-09-18T03:21:35.814Z,46.18
2022-09-18T03:22:35.801Z,46.05
2022-09-18T03:23:35.819Z,43.51
2022-09-18T03:24:35.786Z,47.21
2022-09-18T03:25:35.786Z,52.82
2022-09-18T03:26:35.788Z,43.97
2022-09-18T03:27:35.763Z,47.42
2022-09-18T03:28:35.769Z,46.77
2022-09-18T03:29:35.764Z,42.67
2022-09-18T03:30:35.795Z,48.42
2022-09-18T03:31:35.879Z,45.00
2022-09-18T03:32:35.726Z,45.72
2022-09-18T03:33:35.713Z,43.95
2022-09-18T03:34:35.673Z,48.64
2022-09-18T03:35:35.680Z,43.89
2022-09-18T03:36:35.653Z,45.18
2022-09-18T03:37:35.665Z,44.84
2022-09-18T03:38:35.682Z,47.03
2022-09-18T03:39:35.644Z,48.61
2022-09-18T03:40:35.686Z,43.37
2022-09-18T03:41:35.619Z,47.49
2022-09-18T03:42:35.596Z,46.78
2022-09-18T03:43:35.587Z,45.68
2022-09-18T03:44:35.597Z,44.32
2022-09-18T03:45:35.568Z,45.19
2022-09-18T03:46:35.740Z,54.51
2022-09-18T03:47:36.632Z,43.50
2022-09-18T03:48:36.544Z,42.47
2022-09-18T03:49:35.545Z,45.87
2022-09-18T03:50:35.521Z,52.75
2022-09-18T03:51:35.506Z,42.45
2022-09-18T03:52:35.501Z,46.69
2022-09-18T03:53:35.488Z,48.81
2022-09-18T03:54:35.497Z,46.56
2022-09-18T03:55:35.471Z,45.21
2022-09-18T03:56:35.463Z,44.59
2022-09-18T03:57:35.452Z,45.39
2022-09-18T03:58:35.449Z,45.97
2022-09-18T03:59:35.449Z,44.57
2022-09-18T04:00:35.427Z,40.25
2022-09-18T04:01:35.476Z,40.92
2022-09-18T04:02:35.560Z,46.87
2022-09-18T04:03:35.384Z,46.77
2022-09-18T04:04:35.399Z,44.38
2022-09-18T04:05:35.373Z,45.60
2022-09-18T04:06:35.382Z,46.64
2022-09-18T04:07:35.358Z,40.58
2022-09-18T04:08:35.342Z,46.82
2022-09-18T04:09:35.341Z,46.83
2022-09-18T04:10:35.338Z,47.72
2022-09-18T04:11:35.314Z,51.53
2022-09-18T04:12:35.337Z,42.59
2022-09-18T04:13:35.288Z,51.13
2022-09-18T04:14:35.280Z,44.72
2022-09-18T04:15:35.281Z,48.00
2022-09-18T04:16:35.292Z,46.68
2022-09-18T04:17:35.260Z,52.55
2022-09-18T04:18:35.332Z,47.05
2022-09-18T04:19:35.244Z,40.82
2022-09-18T04:20:35.235Z,41.86
2022-09-18T04:21:35.212Z,46.43
2022-09-18T04:22:35.229Z,41.10
2022-09-18T04:23:35.204Z,43.24
2022-09-18T04:24:35.186Z,50.39
2022-09-18T04:25:35.180Z,60.98
2022-09-18T04:26:35.165Z,48.20
2022-09-18T04:27:35.211Z,44.32
2022-09-18T04:28:35.147Z,50.36
2022-09-18T04:29:35.141Z,48.29
2022-09-18T04:30:35.127Z,45.73
2022-09-18T04:31:35.165Z,49.12
2022-09-18T04:32:35.105Z,47.98
2022-09-18T04:33:35.116Z,43.78
2022-09-18T04:34:35.158Z,44.93
2022-09-18T04:35:35.074Z,44.52
2022-09-18T04:36:35.081Z,48.43
2022-09-18T04:37:35.063Z,46.79
2022-09-18T04:38:35.049Z,46.64
2022-09-18T04:39:35.038Z,59.81
2022-09-18T04:40:35.110Z,45.44
2022-09-18T04:41:35.018Z,52.06
2022-09-18T04:42:35.011Z,46.16
2022-09-18T04:43:34.996Z,41.63
2022-09-18T04:44:34.993Z,43.65
2022-09-18T04:45:34.998Z,47.28
2022-09-18T04:46:35.088Z,42.12
2022-09-18T04:47:34.956Z,48.78
2022-09-18T04:48:34.948Z,48.55
2022-09-18T04:49:34.947Z,49.98
2022-09-18T04:50:35.024Z,49.12
2022-09-18T04:51:34.916Z,45.29
2022-09-18T04:52:34.924Z,46.20
2022-09-18T04:53:34.918Z,55.62
2022-09-18T04:54:34.890Z,48.71
2022-09-18T04:55:34.890Z,50.01
2022-09-18T04:56:34.899Z,42.96
2022-09-18T04:57:34.857Z,44.30
2022-09-18T04:58:34.852Z,49.42
2022-09-18T04:59:34.838Z,42.32
2022-09-18T05:00:34.875Z,44.26
2022-09-18T05:01:34.903Z,49.02
2022-09-18T05:02:34.806Z,45.86
2022-09-18T05:03:34.802Z,44.91
2022-09-18T05:04:34.799Z,45.52
2022-09-18T05:05:35.811Z,47.70
2022-09-18T05:06:34.853Z,49.01
2022-09-18T05:07:34.768Z,47.22
2022-09-18T05:08:34.760Z,50.91
2022-09-18T05:09:34.745Z,43.28
2022-09-18T05:10:34.754Z,42.15
2022-09-18T05:11:34.725Z,44.40
2022-09-18T05:12:34.724Z,49.34
2022-09-18T05:13:34.706Z,47.92
2022-09-18T05:14:34.705Z,45.78
2022-09-18T05:15:34.671Z,47.26
2022-09-18T05:16:34.739Z,55.30
2022-09-18T05:17:34.688Z,53.11
2022-09-18T05:18:34.639Z,46.30
2022-09-18T05:19:34.627Z,46.09
2022-09-18T05:20:34.638Z,43.01
2022-09-18T05:21:34.613Z,46.91
2022-09-18T05:22:34.709Z,45.35
2022-09-18T05:23:34.605Z,50.23
2022-09-18T05:24:34.603Z,52.29
2022-09-18T05:25:34.585Z,44.53
2022-09-18T05:26:34.575Z,54.26
2022-09-18T05:27:34.572Z,59.11
2022-09-18T05:28:34.565Z,47.07
2022-09-18T05:29:34.538Z,45.46
2022-09-18T05:30:34.535Z,51.62
2022-09-18T05:31:34.575Z,48.36
2022-09-18T05:32:34.509Z,45.46
2022-09-18T05:33:34.541Z,50.93
2022-09-18T05:34:34.490Z,47.00
2022-09-18T05:35:34.484Z,45.16
2022-09-18T05:36:34.484Z,52.86
2022-09-18T05:37:35.437Z,46.23
2022-09-18T05:38:34.533Z,48.54
2022-09-18T05:39:34.458Z,45.18
2022-09-18T05:40:34.527Z,47.97
2022-09-18T05:41:34.417Z,50.61
2022-09-18T05:42:34.414Z,47.54
2022-09-18T05:43:34.401Z,52.41
2022-09-18T05:44:34.412Z,59.36
2022-09-18T05:45:34.388Z,54.57
2022-09-18T05:46:34.423Z,53.34
2022-09-18T05:47:34.364Z,49.42
2022-09-18T05:48:34.348Z,52.27
2022-09-18T05:49:34.361Z,51.52
2022-09-18T05:50:34.336Z,49.58
2022-09-18T05:51:34.343Z,46.30
2022-09-18T05:52:34.316Z,46.82
2022-09-18T05:53:34.307Z,57.01
2022-09-18T05:54:34.375Z,49.45
2022-09-18T05:55:34.292Z,47.96
2022-09-18T05:56:34.305Z,47.18
2022-09-18T05:57:34.268Z,51.10
2022-09-18T05:58:34.258Z,46.51
2022-09-18T05:59:34.240Z,47.57
2022-09-18T06:00:34.246Z,49.95
2022-09-18T06:01:34.296Z,53.25
2022-09-18T06:02:34.239Z,48.41
2022-09-18T06:03:34.227Z,48.59
2022-09-18T06:04:34.203Z,48.63
2022-09-18T06:05:34.189Z,46.82
2022-09-18T06:06:34.173Z,48.15
2022-09-18T06:07:34.171Z,45.66
2022-09-18T06:08:34.176Z,51.07
2022-09-18T06:09:34.154Z,53.77
2022-09-18T06:10:34.213Z,51.73
2022-09-18T06:11:34.150Z,46.97
2022-09-18T06:12:34.122Z,48.93
2022-09-18T06:13:34.098Z,47.75
2022-09-18T06:14:34.098Z,46.27
2022-09-18T06:15:34.093Z,52.30
2022-09-18T06:16:37.483Z,46.57
2022-09-18T06:17:35.057Z,50.06
2022-09-18T06:18:34.035Z,49.52
2022-09-18T06:19:34.046Z,49.07
2022-09-18T06:20:34.081Z,50.95
2022-09-18T06:21:34.042Z,43.73
2022-09-18T06:22:34.018Z,50.64
2022-09-18T06:23:34.004Z,55.63
2022-09-18T06:24:33.986Z,54.65
2022-09-18T06:25:33.982Z,46.02
2022-09-18T06:26:34.067Z,48.72
2022-09-18T06:27:33.966Z,48.43
2022-09-18T06:28:33.961Z,47.33
2022-09-18T06:29:33.944Z,50.16
2022-09-18T06:30:33.940Z,49.54
2022-09-18T06:31:33.962Z,45.46
2022-09-18T06:32:33.931Z,47.95
2022-09-18T06:33:33.918Z,48.27
2022-09-18T06:34:38.514Z,50.72
2022-09-18T06:35:34.885Z,47.22
2022-09-18T06:36:33.879Z,52.94
2022-09-18T06:37:33.869Z,51.58
2022-09-18T06:38:33.861Z,48.71
2022-09-18T06:39:33.901Z,45.91
2022-09-18T06:40:33.938Z,51.94
2022-09-18T06:41:33.860Z,55.56
2022-09-18T06:42:33.908Z,48.65
2022-09-18T06:43:33.811Z,53.69
2022-09-18T06:44:33.821Z,54.79
2022-09-18T06:45:33.786Z,55.58
2022-09-18T06:46:33.819Z,52.34
2022-09-18T06:47:33.770Z,52.27
2022-09-18T06:48:33.763Z,49.41
2022-09-18T06:49:33.745Z,50.81
2022-09-18T06:50:33.760Z,51.32
2022-09-18T06:51:33.725Z,48.70
2022-09-18T06:52:33.704Z,50.49
2022-09-18T06:53:33.704Z,49.27
2022-09-18T06:54:33.711Z,50.13
2022-09-18T06:55:33.706Z,44.98
2022-09-18T06:56:33.719Z,46.98
2022-09-18T06:57:33.676Z,49.34
2022-09-18T06:58:33.741Z,52.35
2022-09-18T06:59:33.661Z,55.95
2022-09-18T07:00:33.669Z,52.92
2022-09-18T07:01:33.703Z,52.09
2022-09-18T07:02:33.717Z,53.43
2022-09-18T07:03:33.619Z,46.96
2022-09-18T07:04:33.596Z,51.38
2022-09-18T07:05:33.590Z,56.75
2022-09-18T07:06:33.582Z,52.61
2022-09-18T07:07:33.596Z,61.66
2022-09-18T07:08:33.545Z,53.69
2022-09-18T07:09:33.556Z,55.17
2022-09-18T07:10:33.538Z,54.16
2022-09-18T07:11:33.529Z,54.72
2022-09-18T07:12:33.548Z,56.09
2022-09-18T07:13:33.531Z,53.15
2022-09-18T07:14:33.582Z,52.61
2022-09-18T07:15:33.498Z,52.18
2022-09-18T07:16:33.547Z,52.43
2022-09-18T07:17:33.478Z,58.71
2022-09-18T07:18:33.479Z,60.19
2022-09-18T07:19:33.448Z,53.10
2022-09-18T07:20:33.443Z,54.61
2022-09-18T07:21:33.439Z,53.25
2022-09-18T07:22:33.420Z,55.45
2022-09-18T07:23:33.423Z,51.49
2022-09-18T07:24:33.433Z,54.13
2022-09-18T07:25:33.393Z,53.53
2022-09-18T07:26:33.406Z,50.59
2022-09-18T07:27:33.376Z,53.93
2022-09-18T07:28:33.367Z,50.08
2022-09-18T07:29:33.359Z,51.24
2022-09-18T07:30:34.422Z,50.25
2022-09-18T07:31:33.388Z,50.10
2022-09-18T07:32:33.323Z,55.28
2022-09-18T07:33:33.319Z,51.11
2022-09-18T07:34:33.314Z,52.54
2022-09-18T07:35:33.287Z,57.80
2022-09-18T07:36:33.281Z,50.96
2022-09-18T07:37:33.263Z,53.59
2022-09-18T07:38:33.269Z,54.63
2022-09-18T07:39:33.262Z,51.24
2022-09-18T07:40:33.342Z,53.81
2022-09-18T07:41:33.230Z,53.84
2022-09-18T07:42:33.244Z,54.74
2022-09-18T07:43:33.200Z,54.04
2022-09-18T07:44:33.202Z,54.30
2022-09-18T07:45:33.225Z,51.85
2022-09-18T07:46:41.682Z,53.71
2022-09-18T07:47:33.201Z,54.74
2022-09-18T07:48:33.166Z,54.24
2022-09-18T07:49:33.166Z,55.86
2022-09-18T07:50:33.151Z,56.02
2022-09-18T07:51:33.155Z,55.81
2022-09-18T07:52:33.125Z,51.76
2022-09-18T07:53:33.122Z,55.78
2022-09-18T07:54:33.105Z,52.91
2022-09-18T07:55:33.122Z,53.34
2022-09-18T07:56:33.104Z,55.31
2022-09-18T07:57:33.068Z,54.98
2022-09-18T07:58:33.117Z,52.39
2022-09-18T07:59:33.055Z,53.62
2022-09-18T08:00:33.042Z,51.50
2022-09-18T08:01:33.077Z,51.48
2022-09-18T08:02:33.227Z,50.52
2022-09-18T08:03:34.325Z,48.19
2022-09-18T08:04:33.009Z,54.19
2022-09-18T08:05:32.998Z,57.64
2022-09-18T08:06:33.002Z,53.63
2022-09-18T08:07:32.986Z,64.12
2022-09-18T08:08:32.969Z,54.24
2022-09-18T08:09:32.972Z,51.27
2022-09-18T08:10:32.962Z,52.44
2022-09-18T08:11:32.945Z,55.66
2022-09-18T08:12:32.945Z,55.04
2022-09-18T08:13:32.918Z,52.39
2022-09-18T08:14:32.938Z,57.05
2022-09-18T08:15:32.899Z,55.17
2022-09-18T08:16:32.980Z,55.11
2022-09-18T08:17:32.878Z,55.32
2022-09-18T08:18:32.957Z,53.31
2022-09-18T08:19:32.901Z,55.70
2022-09-18T08:20:32.841Z,60.05
2022-09-18T08:21:32.845Z,56.99
2022-09-18T08:22:32.834Z,52.08
2022-09-18T08:23:32.825Z,51.26
2022-09-18T08:24:32.827Z,54.78
2022-09-18T08:25:32.798Z,50.57
2022-09-18T08:26:32.806Z,50.34
2022-09-18T08:27:32.791Z,62.43
2022-09-18T08:28:32.756Z,52.70
2022-09-18T08:29:32.753Z,46.82
2022-09-18T08:30:32.752Z,57.85
2022-09-18T08:31:32.786Z,51.88
2022-09-18T08:32:32.745Z,53.19
2022-09-18T08:33:32.712Z,52.74
2022-09-18T08:34:32.782Z,52.91
2022-09-18T08:35:32.710Z,54.59
2022-09-18T08:36:32.713Z,52.05
2022-09-18T08:37:32.677Z,53.52
2022-09-18T08:38:32.712Z,50.47
2022-09-18T08:39:32.670Z,63.00
2022-09-18T08:40:32.678Z,53.71
2022-09-18T08:41:32.634Z,54.19
2022-09-18T08:42:32.641Z,54.65
2022-09-18T08:43:32.672Z,55.98
2022-09-18T08:44:32.638Z,60.50
2022-09-18T08:45:32.619Z,55.40
2022-09-18T08:46:32.650Z,52.21
2022-09-18T08:47:32.586Z,53.88
2022-09-18T08:48:32.580Z,51.71
2022-09-18T08:49:32.600Z,51.86
2022-09-18T08:50:37.613Z,56.64
2022-09-18T08:51:33.542Z,53.23
2022-09-18T08:52:32.627Z,51.64
2022-09-18T08:53:32.545Z,60.03
2022-09-18T08:54:32.539Z,56.59
2022-09-18T08:55:32.543Z,56.50
2022-09-18T08:56:32.497Z,54.45
2022-09-18T08:57:32.484Z,50.17
2022-09-18T08:58:32.494Z,49.25
2022-09-18T08:59:32.469Z,55.57
2022-09-18T09:00:32.493Z,49.69
2022-09-18T09:01:32.429Z,57.51
2022-09-18T09:02:32.456Z,53.74
2022-09-18T09:03:32.426Z,52.80
2022-09-18T09:04:32.464Z,50.79
2022-09-18T09:05:32.445Z,51.21
2022-09-18T09:06:32.478Z,48.63
2022-09-18T09:07:32.388Z,48.77
2022-09-18T09:08:32.385Z,50.85
2022-09-18T09:09:32.364Z,55.20
2022-09-18T09:10:32.331Z,52.28
2022-09-18T09:11:32.355Z,53.72
2022-09-18T09:12:32.344Z,52.83
2022-09-18T09:13:32.337Z,52.71
2022-09-18T09:14:55.571Z,52.70
2022-09-18T09:15:33.289Z,55.05
2022-09-18T09:16:32.352Z,50.65
2022-09-18T09:17:32.300Z,48.97
2022-09-18T09:18:32.273Z,48.62
2022-09-18T09:19:32.257Z,53.86
2022-09-18T09:20:32.232Z,50.98
2022-09-18T09:21:32.251Z,54.36
2022-09-18T09:22:32.310Z,55.23
2022-09-18T09:23:32.231Z,52.54
2022-09-18T09:24:32.223Z,52.42
2022-09-18T09:25:32.175Z,52.63
2022-09-18T09:26:32.176Z,53.02
2022-09-18T09:27:32.169Z,54.71
2022-09-18T09:28:32.210Z,52.20
2022-09-18T09:29:32.149Z,54.53
2022-09-18T09:30:32.150Z,56.74
2022-09-18T09:31:32.196Z,54.50
2022-09-18T09:32:32.161Z,52.10
2022-09-18T09:33:32.096Z,51.08
2022-09-18T09:34:32.104Z,53.47
2022-09-18T09:35:32.085Z,52.17
2022-09-18T09:36:32.085Z,52.34
2022-09-18T09:37:33.905Z,51.41
2022-09-18T09:38:33.145Z,54.90
2022-09-18T09:39:32.073Z,52.13
2022-09-18T09:40:32.083Z,60.27
2022-09-18T09:41:32.022Z,53.31
2022-09-18T09:42:32.014Z,55.09
2022-09-18T09:43:32.013Z,56.12
2022-09-18T09:44:32.031Z,54.69
2022-09-18T09:45:31.984Z,52.51
2022-09-18T09:46:32.122Z,51.94
2022-09-18T09:47:31.948Z,56.26
2022-09-18T09:48:31.948Z,53.07
2022-09-18T09:49:31.937Z,53.25
2022-09-18T09:50:31.927Z,53.87
2022-09-18T09:51:31.949Z,53.05
2022-09-18T09:52:31.927Z,54.25
2022-09-18T09:53:32.899Z,61.14
2022-09-18T09:54:31.967Z,54.69
2022-09-18T09:55:31.897Z,54.12
2022-09-18T09:56:31.883Z,63.24
2022-09-18T09:57:31.875Z,53.52
2022-09-18T09:58:31.841Z,56.13
2022-09-18T09:59:31.832Z,53.17
2022-09-18T10:00:31.849Z,51.71
2022-09-18T10:01:31.868Z,52.57
2022-09-18T10:02:31.905Z,58.98
2022-09-18T10:03:31.799Z,52.54
2022-09-18T10:04:31.783Z,52.73
2022-09-18T10:05:31.780Z,52.54
2022-09-18T10:06:31.768Z,51.19
2022-09-18T10:07:31.768Z,53.11
2022-09-18T10:08:31.770Z,56.52
2022-09-18T10:09:31.747Z,52.38
2022-09-18T10:10:31.799Z,57.40
2022-09-18T10:11:31.724Z,55.11
2022-09-18T10:12:31.714Z,54.44
2022-09-18T10:13:31.713Z,51.94
2022-09-18T10:14:31.703Z,53.65
2022-09-18T10:15:31.678Z,55.08
2022-09-18T10:16:31.724Z,53.60
2022-09-18T10:17:31.640Z,51.32
2022-09-18T10:18:31.643Z,56.02
2022-09-18T10:19:31.638Z,55.09
2022-09-18T10:20:31.621Z,52.69
2022-09-18T10:21:31.606Z,52.59
2022-09-18T10:22:31.593Z,57.98
2022-09-18T10:23:33.906Z,56.89
2022-09-18T10:24:32.592Z,52.00
2022-09-18T10:25:31.593Z,54.49
2022-09-18T10:26:31.663Z,57.42
2022-09-18T10:27:31.529Z,53.92
2022-09-18T10:28:31.532Z,51.01
2022-09-18T10:29:35.151Z,54.37
2022-09-18T10:30:31.519Z,56.05
2022-09-18T10:31:31.574Z,52.56
2022-09-18T10:32:31.504Z,55.68
2022-09-18T10:33:31.483Z,53.34
2022-09-18T10:34:31.495Z,51.58
2022-09-18T10:35:31.465Z,50.82
2022-09-18T10:36:31.467Z,52.21
2022-09-18T10:37:31.448Z,54.13
2022-09-18T10:38:31.448Z,56.09
2022-09-18T10:39:31.911Z,52.22
2022-09-18T10:40:32.459Z,54.57
2022-09-18T10:41:31.405Z,56.48
2022-09-18T10:42:31.477Z,57.65
2022-09-18T10:43:31.394Z,52.63
2022-09-18T10:44:31.391Z,53.14
2022-09-18T10:45:31.384Z,57.72
2022-09-18T10:46:31.404Z,56.37
2022-09-18T10:47:31.350Z,52.91
2022-09-18T10:48:31.326Z,56.98
2022-09-18T10:49:31.332Z,56.94
2022-09-18T10:50:34.251Z,53.12
2022-09-18T10:51:31.308Z,52.08
2022-09-18T10:52:31.294Z,55.01
2022-09-18T10:53:31.286Z,60.82
2022-09-18T10:54:31.285Z,54.72
2022-09-18T10:55:31.265Z,54.53
2022-09-18T10:56:31.266Z,57.19
2022-09-18T10:57:31.308Z,53.88
2022-09-18T10:58:31.318Z,52.67
2022-09-18T10:59:31.236Z,53.97
2022-09-18T11:00:31.253Z,50.93
2022-09-18T11:01:31.278Z,55.11
2022-09-18T11:02:31.233Z,60.05
2022-09-18T11:03:31.185Z,54.57
2022-09-18T11:04:31.179Z,53.55
2022-09-18T11:05:31.160Z,52.79
2022-09-18T11:06:31.142Z,63.08
2022-09-18T11:07:31.144Z,53.98
2022-09-18T11:08:31.168Z,53.42
2022-09-18T11:09:31.150Z,52.77
2022-09-18T11:10:31.135Z,53.77
2022-09-18T11:11:31.105Z,51.52
2022-09-18T11:12:31.102Z,55.66
2022-09-18T11:13:31.105Z,58.48
2022-09-18T11:14:31.174Z,57.75
2022-09-18T11:15:31.085Z,55.12
2022-09-18T11:16:31.141Z,55.87
2022-09-18T11:17:31.044Z,53.25
2022-09-18T11:18:31.037Z,50.74
2022-09-18T11:19:31.054Z,50.73
2022-09-18T11:20:31.012Z,52.16
2022-09-18T11:21:31.004Z,53.13
2022-09-18T11:22:31.029Z,53.55
2022-09-18T11:23:30.985Z,56.04
2022-09-18T11:24:30.981Z,55.85
2022-09-18T11:25:30.958Z,55.91
2022-09-18T11:26:30.951Z,52.77
2022-09-18T11:27:30.958Z,54.19
2022-09-18T11:28:30.927Z,55.85
2022-09-18T11:29:30.913Z,56.65
2022-09-18T11:30:30.992Z,53.06
2022-09-18T11:31:30.962Z,52.48
2022-09-18T11:32:30.902Z,54.27
2022-09-18T11:33:31.901Z,54.15
2022-09-18T11:34:30.889Z,52.83
2022-09-18T11:35:30.940Z,55.16
2022-09-18T11:36:30.884Z,51.56
2022-09-18T11:37:30.869Z,54.41
2022-09-18T11:38:30.826Z,53.65
2022-09-18T11:39:30.823Z,58.19
2022-09-18T11:40:30.917Z,54.43
2022-09-18T11:41:30.818Z,54.46
2022-09-18T11:42:30.794Z,51.90
2022-09-18T11:43:30.807Z,52.81
2022-09-18T11:44:30.777Z,53.14
2022-09-18T11:45:30.792Z,51.27
2022-09-18T11:46:30.886Z,53.95
2022-09-18T11:47:30.767Z,55.50
2022-09-18T11:48:30.747Z,55.10
2022-09-18T11:49:30.771Z,58.94
2022-09-18T11:50:30.740Z,55.41
2022-09-18T11:51:30.739Z,55.59
2022-09-18T11:52:30.763Z,53.79
2022-09-18T11:53:30.727Z,54.85
2022-09-18T11:54:30.759Z,57.48
2022-09-18T11:55:30.653Z,54.93
2022-09-18T11:56:30.718Z,55.61
2022-09-18T11:57:30.655Z,58.02
2022-09-18T11:58:30.649Z,56.76
2022-09-18T11:59:30.625Z,54.58
2022-09-18T12:00:30.613Z,54.95
2022-09-18T12:01:30.638Z,56.84
2022-09-18T12:02:30.837Z,51.27
2022-09-18T12:03:30.636Z,54.13
2022-09-18T12:04:30.567Z,55.61
2022-09-18T12:05:30.568Z,54.23
2022-09-18T12:06:30.564Z,54.57
2022-09-18T12:07:44.028Z,51.50
2022-09-18T12:08:29.198Z,53.92
2022-09-18T12:09:29.212Z,53.95
2022-09-18T12:10:29.162Z,55.78
2022-09-18T12:11:29.143Z,54.52
2022-09-18T12:12:29.168Z,55.04
2022-09-18T12:13:29.145Z,57.06
2022-09-18T12:14:29.139Z,54.22
2022-09-18T12:15:29.105Z,52.62
2022-09-18T12:16:29.145Z,55.39
2022-09-18T12:17:29.101Z,58.61
2022-09-18T12:18:29.151Z,55.30
2022-09-18T12:19:29.055Z,51.72
2022-09-18T12:20:29.048Z,55.62
2022-09-18T12:21:29.024Z,57.60
2022-09-18T12:22:29.024Z,54.34
2022-09-18T12:23:29.029Z,55.67
2022-09-18T12:24:29.020Z,53.01
2022-09-18T12:25:28.995Z,54.96
2022-09-18T12:26:28.997Z,55.96
2022-09-18T12:27:28.995Z,55.04
2022-09-18T12:28:28.964Z,61.16
2022-09-18T12:29:28.993Z,55.33
2022-09-18T12:30:28.964Z,55.08
2022-09-18T12:31:28.971Z,51.91
2022-09-18T12:32:28.986Z,54.49
2022-09-18T12:33:33.440Z,53.60
2022-09-18T12:34:30.003Z,55.03
2022-09-18T12:35:28.903Z,56.46
2022-09-18T12:36:28.901Z,55.91
2022-09-18T12:37:28.848Z,53.57
2022-09-18T12:38:28.850Z,54.72
2022-09-18T12:39:29.515Z,57.01
2022-09-18T12:40:29.522Z,55.78
2022-09-18T12:41:29.506Z,54.92
2022-09-18T12:42:29.470Z,55.04
2022-09-18T12:43:29.476Z,55.63
2022-09-18T12:44:29.456Z,53.12
2022-09-18T12:45:29.468Z,58.64
2022-09-18T12:46:29.448Z,62.42
2022-09-18T12:47:29.470Z,60.68
2022-09-18T12:48:29.421Z,54.07
2022-09-18T12:49:29.401Z,57.12
2022-09-18T12:50:29.464Z,57.57
2022-09-18T12:51:29.393Z,54.47
2022-09-18T12:52:29.389Z,58.03